createdAt,value
2023-06-10T00:02:22.252Z,100.00
2023-06-10T00:04:48.896Z,100.00
2023-06-10T00:07:15.470Z,100.00
2023-06-10T00:09:42.092Z,100.00
2023-06-10T00:12:10.964Z,100.00
2023-06-10T00:14:39.434Z,100.00
2023-06-10T00:17:06.436Z,100.00
2023-06-10T00:19:32.936Z,100.00
2023-06-10T00:21:59.452Z,100.00
2023-06-10T00:24:26.032Z,100.00
2023-06-10T00:26:52.639Z,100.00
2023-06-10T00:29:19.280Z,100.00
2023-06-10T00:31:46.292Z,100.00
2023-06-10T00:34:12.882Z,100.00
2023-06-10T00:36:39.481Z,100.00
2023-06-10T00:39:06.039Z,100.00
2023-06-10T00:41:32.953Z,100.00
2023-06-10T00:43:59.483Z,100.00
2023-06-10T00:46:28.021Z,100.00
2023-06-10T00:48:54.803Z,100.00
2023-06-10T00:51:21.995Z,100.00
2023-06-10T00:53:49.530Z,100.00
2023-06-10T00:56:16.721Z,100.00
2023-06-10T00:58:43.338Z,100.00
2023-06-10T01:01:12.534Z,100.00
2023-06-10T01:03:40.612Z,100.00
2023-06-10T01:10:04.220Z,100.00
2023-06-10T01:12:34.129Z,100.00
2023-06-10T01:15:02.670Z,100.00
2023-06-10T01:17:29.754Z,100.00
2023-06-10T01:19:59.908Z,100.00
2023-06-10T01:22:37.505Z,100.00
2023-06-10T01:25:04.607Z,100.00
2023-06-10T01:27:40.678Z,100.00
2023-06-10T01:30:17.036Z,100.00
2023-06-10T01:32:51.212Z,100.00
2023-06-10T01:35:20.138Z,100.00
2023-06-10T01:37:49.397Z,100.00
2023-06-10T01:40:17.040Z,100.00
2023-06-10T01:42:43.711Z,100.00
2023-06-10T01:45:10.949Z,100.00
2023-06-10T01:47:37.854Z,100.00
2023-06-10T01:50:04.732Z,100.00
2023-06-10T01:52:31.217Z,100.00
2023-06-10T01:54:57.692Z,100.00
2023-06-10T01:57:24.264Z,100.00
2023-06-10T01:59:50.759Z,100.00
2023-06-10T02:02:17.251Z,100.00
2023-06-10T02:04:43.731Z,100.00
2023-06-10T02:07:10.268Z,100.00
2023-06-10T02:09:37.685Z,100.00
2023-06-10T02:12:04.962Z,100.00
2023-06-10T02:14:33.877Z,100.00
2023-06-10T02:17:00.554Z,100.00
2023-06-10T02:19:27.773Z,100.00
2023-06-10T02:21:54.435Z,100.00
2023-06-10T02:24:21.075Z,100.00
2023-06-10T02:26:48.955Z,100.00
2023-06-10T02:29:15.621Z,100.00
2023-06-10T02:31:42.254Z,100.00
2023-06-10T02:34:08.832Z,100.00
2023-06-10T02:36:36.717Z,100.00
2023-06-10T02:39:05.486Z,100.00
2023-06-10T02:41:32.145Z,100.00
2023-06-10T02:43:58.616Z,100.00
2023-06-10T02:46:25.159Z,100.00
2023-06-10T02:48:53.029Z,100.00
2023-06-10T02:51:19.811Z,100.00
2023-06-10T02:53:46.646Z,100.00
2023-06-10T02:56:13.730Z,100.00
2023-06-10T02:58:40.418Z,100.00
2023-06-10T03:01:06.980Z,100.00
2023-06-10T03:03:35.086Z,100.00
2023-06-10T03:06:01.819Z,100.00
2023-06-10T03:08:28.297Z,100.00
2023-06-10T03:10:54.781Z,100.00
2023-06-10T03:13:22.128Z,100.00
2023-06-10T03:15:48.908Z,100.00
2023-06-10T03:18:15.435Z,100.00
2023-06-10T03:20:41.972Z,100.00
2023-06-10T03:23:09.115Z,100.00
2023-06-10T03:25:35.611Z,100.00
2023-06-10T03:28:02.392Z,100.00
2023-06-10T03:30:29.557Z,100.00
2023-06-10T03:32:56.193Z,100.00
2023-06-10T03:35:23.316Z,100.00
2023-06-10T03:37:50.190Z,100.00
2023-06-10T03:40:16.778Z,100.00
2023-06-10T03:42:45.048Z,100.00
2023-06-10T03:45:12.489Z,100.00
2023-06-10T03:47:39.408Z,100.00
2023-06-10T03:50:06.421Z,100.00
2023-06-10T03:52:32.916Z,100.00
2023-06-10T03:54:59.454Z,100.00
2023-06-10T03:57:26.704Z,100.00
2023-06-10T03:59:53.239Z,100.00
2023-06-10T04:02:19.743Z,100.00
2023-06-10T04:04:46.279Z,100.00
2023-06-10T04:07:13.350Z,100.00
2023-06-10T04:09:40.163Z,100.00
2023-06-10T04:12:11.257Z,100.00
2023-06-10T04:14:39.003Z,100.00
2023-06-10T04:17:09.829Z,100.00
2023-06-10T04:19:36.535Z,100.00
2023-06-10T04:22:06.304Z,100.00
2023-06-10T04:24:33.121Z,100.00
2023-06-10T04:26:59.653Z,100.00
2023-06-10T04:29:26.241Z,100.00
2023-06-10T04:31:52.824Z,100.00
2023-06-10T04:34:19.311Z,100.00
2023-06-10T04:36:45.767Z,100.00
2023-06-10T04:39:12.582Z,100.00
2023-06-10T04:41:39.094Z,100.00
2023-06-10T04:44:05.578Z,100.00
2023-06-10T04:46:32.921Z,100.00
2023-06-10T04:48:59.509Z,100.00
2023-06-10T04:51:25.992Z,100.00
2023-06-10T04:53:52.449Z,100.00
2023-06-10T04:56:19.194Z,100.00
2023-06-10T04:58:45.664Z,100.00
2023-06-10T05:01:12.330Z,100.00
2023-06-10T05:03:38.875Z,100.00
2023-06-10T05:06:05.462Z,100.00
2023-06-10T05:08:31.941Z,100.00
2023-06-10T05:10:59.348Z,100.00
2023-06-10T05:13:26.119Z,100.00
2023-06-10T05:15:52.694Z,100.00
2023-06-10T05:18:19.243Z,100.00
2023-06-10T05:20:46.444Z,100.00
2023-06-10T05:23:13.018Z,100.00
2023-06-10T05:28:15.922Z,100.00
2023-06-10T05:30:42.618Z,100.00
2023-06-10T05:33:09.177Z,100.00
2023-06-10T05:35:35.775Z,100.00
2023-06-10T05:38:04.069Z,100.00
2023-06-10T05:40:30.848Z,100.00
2023-06-10T05:42:57.375Z,100.00
2023-06-10T05:45:24.560Z,100.00
2023-06-10T05:47:51.836Z,100.00
2023-06-10T05:50:18.612Z,100.00
2023-06-10T05:52:45.138Z,100.00
2023-06-10T05:55:11.855Z,100.00
2023-06-10T05:57:38.694Z,100.00
2023-06-10T06:00:05.959Z,100.00
2023-06-10T06:02:32.576Z,100.00
2023-06-10T06:04:59.155Z,100.00
2023-06-10T06:07:25.759Z,100.00
2023-06-10T06:09:52.235Z,100.00
2023-06-10T06:12:18.807Z,100.00
2023-06-10T06:14:46.508Z,100.00
2023-06-10T06:17:13.709Z,100.00
2023-06-10T06:19:40.429Z,100.00
2023-06-10T06:22:06.965Z,100.00
2023-06-10T06:24:33.670Z,100.00
2023-06-10T06:27:00.419Z,100.00
2023-06-10T06:29:27.019Z,100.00
2023-06-10T06:31:54.100Z,100.00
2023-06-10T06:34:20.859Z,100.00
2023-06-10T06:36:47.392Z,100.00
2023-06-10T06:39:13.893Z,100.00
2023-06-10T06:41:40.359Z,100.00
2023-06-10T06:44:06.855Z,100.00
2023-06-10T06:46:33.473Z,100.00
2023-06-10T06:49:00.008Z,100.00
2023-06-10T06:51:26.512Z,100.00
2023-06-10T06:53:55.714Z,100.00
2023-06-10T06:56:22.393Z,100.00
2023-06-10T06:58:48.878Z,100.00
2023-06-10T07:01:15.402Z,100.00
2023-06-10T07:03:42.520Z,100.00
2023-06-10T07:06:09.021Z,100.00
2023-06-10T07:08:35.544Z,100.00
2023-06-10T07:11:02.107Z,100.00
2023-06-10T07:13:28.737Z,100.00
2023-06-10T07:15:55.215Z,100.00
2023-06-10T07:18:21.711Z,100.00
2023-06-10T07:20:48.205Z,100.00
2023-06-10T07:23:14.693Z,100.00
2023-06-10T07:25:42.821Z,100.00
2023-06-10T07:28:09.381Z,100.00
2023-06-10T07:30:36.084Z,100.00
2023-06-10T07:33:03.411Z,100.00
2023-06-10T07:35:30.346Z,100.00
2023-06-10T07:37:56.920Z,100.00
2023-06-10T07:40:23.442Z,100.00
2023-06-10T07:42:49.990Z,100.00
2023-06-10T07:45:16.600Z,100.00
2023-06-10T07:47:43.868Z,100.00
2023-06-10T07:50:10.774Z,100.00
2023-06-10T07:52:37.653Z,97.43
2023-06-10T07:55:06.037Z,100.00
2023-06-10T07:57:35.852Z,99.84
2023-06-10T08:00:05.144Z,96.78
2023-06-10T08:02:31.755Z,96.59
2023-06-10T08:04:58.558Z,96.79
2023-06-10T08:07:25.213Z,100.00
2023-06-10T08:09:51.693Z,100.00
2023-06-10T08:12:18.291Z,100.00
2023-06-10T08:14:44.789Z,100.00
2023-06-10T08:17:11.963Z,100.00
2023-06-10T08:19:38.423Z,100.00
2023-06-10T08:22:05.467Z,100.00
2023-06-10T08:24:32.097Z,100.00
2023-06-10T08:26:59.076Z,100.00
2023-06-10T08:29:26.299Z,100.00
2023-06-10T08:31:53.211Z,99.81
2023-06-10T08:34:19.773Z,95.45
2023-06-10T08:36:46.615Z,87.38
2023-06-10T08:39:13.427Z,83.74
2023-06-10T08:41:44.776Z,81.23
2023-06-10T08:44:14.915Z,79.55
2023-06-10T08:46:45.871Z,77.52
2023-06-10T08:49:24.423Z,73.38
2023-06-10T08:52:01.579Z,74.35
2023-06-10T08:54:35.674Z,71.36
2023-06-10T08:57:04.938Z,70.04
2023-06-10T08:59:31.639Z,65.95
2023-06-10T09:01:59.194Z,66.60
2023-06-10T09:04:26.411Z,67.35
2023-06-10T09:06:54.550Z,67.92
2023-06-10T09:09:21.474Z,66.36
2023-06-10T09:11:47.989Z,66.14
2023-06-10T09:14:14.732Z,64.03
2023-06-10T09:16:43.073Z,63.34
2023-06-10T09:19:09.667Z,62.39
2023-06-10T09:21:37.035Z,60.43
2023-06-10T09:26:33.672Z,55.60
2023-06-10T09:29:07.790Z,56.23
2023-06-10T09:31:37.786Z,56.89
2023-06-10T09:34:16.249Z,57.42
2023-06-10T09:36:42.795Z,57.40
2023-06-10T09:39:17.994Z,59.51
2023-06-10T09:41:45.951Z,58.28
2023-06-10T09:44:22.677Z,58.43
2023-06-10T09:46:51.579Z,58.57
2023-06-10T09:49:18.726Z,56.56
2023-06-10T09:51:53.305Z,56.50
2023-06-10T09:54:20.984Z,59.15
2023-06-10T09:56:52.960Z,62.67
2023-06-10T09:59:30.708Z,66.07
2023-06-10T10:01:57.360Z,68.44
2023-06-10T10:04:27.012Z,71.11
2023-06-10T10:06:53.969Z,71.95
2023-06-10T10:09:20.548Z,75.41
2023-06-10T10:11:48.427Z,76.13
2023-06-10T10:14:17.747Z,78.11
2023-06-10T10:16:44.826Z,79.54
2023-06-10T10:19:24.363Z,80.48
2023-06-10T10:21:55.802Z,79.41
2023-06-10T10:24:23.731Z,76.70
2023-06-10T10:26:52.329Z,76.30
2023-06-10T10:29:39.805Z,75.19
2023-06-10T10:32:10.047Z,74.38
2023-06-10T10:35:06.265Z,72.74
2023-06-10T10:37:33.407Z,72.34
2023-06-10T11:26:30.027Z,53.20
2023-06-10T11:28:56.537Z,51.01
2023-06-10T11:31:26.791Z,51.21
2023-06-10T12:16:11.503Z,51.52
2023-06-10T12:18:38.163Z,52.44
2023-06-10T12:21:16.972Z,52.98
2023-06-10T12:24:07.582Z,54.17
2023-06-10T12:26:42.464Z,55.07
2023-06-10T12:29:25.966Z,55.73
2023-06-10T12:32:01.740Z,55.41
2023-06-10T12:34:39.506Z,54.57
2023-06-10T12:37:13.439Z,53.59
2023-06-10T12:39:41.275Z,52.99
2023-06-10T12:42:10.582Z,51.69
2023-06-10T12:44:41.129Z,52.71
2023-06-10T12:47:13.317Z,52.89
2023-06-10T12:49:40.206Z,52.99
2023-06-10T12:52:08.219Z,53.95
2023-06-10T12:54:35.601Z,54.43
2023-06-10T12:57:02.407Z,54.23
2023-06-10T12:59:29.589Z,54.80
2023-06-10T13:01:56.474Z,55.06
2023-06-10T13:04:23.906Z,55.18
2023-06-10T13:06:50.556Z,55.85
2023-06-10T13:09:17.210Z,56.25
2023-06-10T13:11:44.023Z,56.00
2023-06-10T13:14:11.579Z,57.34
2023-06-10T13:16:39.295Z,57.89
2023-06-10T13:19:06.748Z,58.85
2023-06-10T13:21:35.049Z,58.58
2023-06-10T13:24:01.973Z,58.02
2023-06-10T13:26:28.617Z,59.06
2023-06-10T13:28:55.125Z,59.03
2023-06-10T13:31:22.319Z,57.00
2023-06-10T13:33:49.230Z,56.95
2023-06-10T13:36:15.933Z,57.05
2023-06-10T13:38:42.486Z,57.54
2023-06-10T13:41:09.044Z,56.54
2023-06-10T13:43:36.489Z,56.69
2023-06-10T13:46:03.178Z,56.50
2023-06-10T13:48:29.660Z,56.93
2023-06-10T13:50:56.156Z,56.54
2023-06-10T13:53:22.708Z,57.18
2023-06-10T13:55:49.161Z,57.24
2023-06-10T13:58:15.633Z,54.21
2023-06-10T14:00:42.176Z,53.90
2023-06-10T14:03:08.840Z,53.43
2023-06-10T14:05:35.778Z,53.75
2023-06-10T14:08:02.368Z,54.22
2023-06-10T14:10:28.859Z,54.08
2023-06-10T14:12:55.336Z,55.43
2023-06-10T14:15:21.875Z,56.36
2023-06-10T14:17:48.532Z,56.48
2023-06-10T14:20:15.611Z,57.58
2023-06-10T14:22:42.487Z,57.38
2023-06-10T14:25:09.737Z,57.72
2023-06-10T14:27:36.470Z,58.00
2023-06-10T14:30:04.163Z,56.44
2023-06-10T14:32:30.886Z,56.31
2023-06-10T14:34:57.511Z,55.25
2023-06-10T14:37:24.134Z,52.31
2023-06-10T14:39:50.686Z,50.31
2023-06-10T14:42:17.214Z,50.57
2023-06-10T14:44:43.680Z,50.37
2023-06-10T14:47:10.149Z,50.09
2023-06-10T14:49:36.636Z,51.74
2023-06-10T14:52:03.342Z,49.28
2023-06-10T14:54:29.854Z,48.27
2023-06-10T14:56:56.476Z,47.20
2023-06-10T14:59:22.956Z,46.61
2023-06-10T15:01:49.543Z,47.30
2023-06-10T15:04:16.263Z,46.68
2023-06-10T15:06:43.552Z,48.67
2023-06-10T15:09:10.450Z,45.91
2023-06-10T15:11:38.945Z,45.79
2023-06-10T15:14:05.577Z,45.61
2023-06-10T15:16:32.244Z,45.44
2023-06-10T15:18:58.946Z,45.02
2023-06-10T15:21:25.517Z,46.27
2023-06-10T15:23:52.413Z,44.58
2023-06-10T15:26:18.949Z,45.03
2023-06-10T15:28:45.595Z,45.21
2023-06-10T15:31:12.098Z,45.23
2023-06-10T15:33:38.604Z,44.60
2023-06-10T15:36:06.953Z,44.77
2023-06-10T15:38:33.546Z,44.36
2023-06-10T15:41:00.211Z,44.07
2023-06-10T15:43:26.700Z,43.64
2023-06-10T15:45:53.299Z,42.96
2023-06-10T15:48:19.885Z,41.88
2023-06-10T15:50:46.470Z,42.14
2023-06-10T15:53:12.952Z,41.33
2023-06-10T15:55:39.421Z,40.67
2023-06-10T15:58:06.045Z,40.71
2023-06-10T16:00:32.881Z,39.75
2023-06-10T16:02:59.651Z,39.12
2023-06-10T16:05:26.215Z,38.29
2023-06-10T16:07:52.724Z,38.21
2023-06-10T16:10:19.387Z,37.33
2023-06-10T16:12:46.390Z,36.97
2023-06-10T16:15:13.059Z,36.36
2023-06-10T16:17:39.603Z,36.00
2023-06-10T16:20:07.668Z,35.95
2023-06-10T16:22:34.235Z,35.71
2023-06-10T16:25:00.800Z,35.73
2023-06-10T16:27:27.605Z,35.47
2023-06-10T16:29:54.665Z,36.21
2023-06-10T16:32:21.492Z,35.28
2023-06-10T16:34:48.034Z,35.23
2023-06-10T16:37:14.565Z,35.14
2023-06-10T16:39:41.273Z,34.99
2023-06-10T16:42:08.040Z,34.81
2023-06-10T16:44:34.562Z,35.00
2023-06-10T16:47:01.436Z,37.94
2023-06-10T16:49:30.840Z,39.15
2023-06-10T16:51:57.340Z,39.54
2023-06-10T16:54:23.880Z,39.54
2023-06-10T16:56:50.376Z,36.49
2023-06-10T16:59:16.870Z,35.66
2023-06-10T17:01:43.431Z,34.85
2023-06-10T17:04:09.977Z,34.68
2023-06-10T17:06:36.803Z,34.35
2023-06-10T17:09:03.415Z,33.98
2023-06-10T17:11:30.937Z,34.16
2023-06-10T17:13:57.707Z,33.85
2023-06-10T17:16:26.508Z,33.53
2023-06-10T17:18:52.987Z,33.35
2023-06-10T17:21:19.483Z,33.39
2023-06-10T17:23:46.138Z,33.35
2023-06-10T17:26:12.614Z,33.35
2023-06-10T17:28:39.139Z,32.99
2023-06-10T17:31:05.729Z,33.15
2023-06-10T17:33:32.263Z,33.44
2023-06-10T17:35:58.820Z,33.16
2023-06-10T17:38:25.415Z,32.88
2023-06-10T17:40:51.873Z,32.61
2023-06-10T17:43:18.687Z,32.61
2023-06-10T17:45:45.128Z,33.80
2023-06-10T17:48:11.719Z,33.01
2023-06-10T17:50:38.240Z,32.77
2023-06-10T17:53:04.809Z,33.00
2023-06-10T17:55:32.424Z,33.59
2023-06-10T17:57:59.071Z,33.72
2023-06-10T18:00:25.737Z,33.17
2023-06-10T18:02:52.271Z,33.47
2023-06-10T18:05:18.788Z,33.01
2023-06-10T18:07:45.374Z,32.97
2023-06-10T18:10:12.445Z,33.54
2023-06-10T18:12:39.203Z,33.54
2023-06-10T18:15:06.632Z,33.47
2023-06-10T18:17:36.789Z,33.31
2023-06-10T18:20:04.482Z,33.57
2023-06-10T18:22:31.112Z,33.96
2023-06-10T18:24:58.799Z,33.71
2023-06-10T18:27:25.669Z,34.04
2023-06-10T18:29:52.176Z,34.13
2023-06-10T18:32:18.861Z,33.95
2023-06-10T18:34:47.415Z,34.24
2023-06-10T18:37:14.038Z,34.21
2023-06-10T18:39:40.524Z,34.31
2023-06-10T18:42:07.848Z,34.57
2023-06-10T18:44:34.861Z,34.53
2023-06-10T18:47:01.454Z,35.23
2023-06-10T18:49:27.979Z,35.82
2023-06-10T18:51:54.473Z,35.14
2023-06-10T18:54:21.122Z,36.15
2023-06-10T18:56:47.658Z,37.63
2023-06-10T18:59:14.189Z,37.69
2023-06-10T19:01:40.973Z,38.42
2023-06-10T19:04:07.596Z,38.40
2023-06-10T19:06:34.195Z,38.61
2023-06-10T19:09:00.734Z,39.19
2023-06-10T19:11:27.253Z,39.79
2023-06-10T19:13:53.807Z,39.69
2023-06-10T19:16:20.406Z,40.18
2023-06-10T19:18:46.869Z,40.46
2023-06-10T19:21:13.341Z,40.70
2023-06-10T19:23:39.859Z,41.74
2023-06-10T19:26:06.437Z,41.97
2023-06-10T19:28:33.007Z,42.59
2023-06-10T19:30:59.582Z,43.82
2023-06-10T19:33:26.057Z,44.49
2023-06-10T19:35:52.617Z,44.49
2023-06-10T19:38:19.667Z,44.88
2023-06-10T19:40:46.170Z,45.84
2023-06-10T19:43:13.443Z,46.70
2023-06-10T19:45:39.951Z,46.92
2023-06-10T19:48:09.498Z,46.96
2023-06-10T19:50:37.770Z,47.65
2023-06-10T19:53:04.213Z,47.98
2023-06-10T19:55:30.711Z,47.74
2023-06-10T19:57:57.272Z,48.79
2023-06-10T20:00:23.827Z,48.83
2023-06-10T20:02:50.363Z,49.09
2023-06-10T20:05:17.115Z,49.54
2023-06-10T20:07:43.716Z,49.81
2023-06-10T20:10:10.811Z,49.86
2023-06-10T20:12:37.338Z,50.24
2023-06-10T20:15:04.143Z,50.49
2023-06-10T20:17:30.652Z,50.94
2023-06-10T20:19:57.488Z,50.50
2023-06-10T20:22:24.092Z,51.19
2023-06-10T20:24:51.941Z,50.91
2023-06-10T20:27:18.683Z,50.98
2023-06-10T20:29:45.275Z,51.11
2023-06-10T20:32:11.832Z,51.15
2023-06-10T20:34:38.719Z,51.14
2023-06-10T20:37:05.320Z,50.89
2023-06-10T20:39:31.977Z,50.65
2023-06-10T20:41:58.508Z,50.49
2023-06-10T20:44:25.001Z,50.26
2023-06-10T20:46:51.544Z,50.15
2023-06-10T20:49:18.045Z,49.80
2023-06-10T20:51:44.557Z,50.09
2023-06-10T20:54:11.071Z,50.12
2023-06-10T20:56:37.684Z,50.05
2023-06-10T20:59:04.185Z,49.48
2023-06-10T21:01:30.655Z,49.53
2023-06-10T21:03:57.181Z,49.61
2023-06-10T21:06:23.967Z,49.97
2023-06-10T21:08:52.250Z,49.77
2023-06-10T21:11:18.796Z,49.88
2023-06-10T21:13:45.354Z,49.79
2023-06-10T21:16:11.958Z,49.81
2023-06-10T21:18:38.450Z,49.50
2023-06-10T21:21:05.116Z,49.52
2023-06-10T21:23:31.596Z,49.61
2023-06-10T21:25:58.130Z,48.91
2023-06-10T21:28:24.696Z,48.41
2023-06-10T21:30:51.133Z,48.19
2023-06-10T21:33:17.896Z,47.98
2023-06-10T21:35:44.400Z,47.04
2023-06-10T21:38:10.879Z,46.87
2023-06-10T21:40:37.358Z,46.68
2023-06-10T21:43:03.875Z,46.86
2023-06-10T21:45:30.458Z,46.45
2023-06-10T21:47:57.041Z,46.31
2023-06-10T21:50:23.597Z,46.62
2023-06-10T21:52:50.157Z,46.52
2023-06-10T21:55:17.310Z,46.46
2023-06-10T21:57:43.975Z,46.37
2023-06-10T22:00:14.256Z,46.24
2023-06-10T22:02:41.791Z,45.67
2023-06-10T22:05:09.436Z,45.77
2023-06-10T22:07:36.443Z,45.66
2023-06-10T22:10:04.542Z,45.52
2023-06-10T22:12:31.437Z,45.77
2023-06-10T22:14:57.918Z,45.38
2023-06-10T22:17:24.667Z,45.15
2023-06-10T22:19:51.314Z,45.26
2023-06-10T22:22:18.634Z,45.02
2023-06-10T22:24:50.622Z,44.81
2023-06-10T22:27:17.305Z,44.64
2023-06-10T22:29:43.751Z,44.32
2023-06-10T22:32:10.352Z,43.70
2023-06-10T22:34:36.982Z,44.12
2023-06-10T22:37:03.556Z,43.20
2023-06-10T22:39:30.060Z,43.03
2023-06-10T22:41:56.534Z,42.48
2023-06-10T22:44:23.101Z,41.97
2023-06-10T22:46:49.667Z,41.79
2023-06-10T22:49:17.479Z,41.28
2023-06-10T22:51:45.609Z,40.89
2023-06-10T22:54:15.143Z,40.46
2023-06-10T22:56:41.858Z,40.08
2023-06-10T22:59:08.345Z,39.95
2023-06-10T23:01:34.860Z,39.88
2023-06-10T23:04:01.402Z,39.86
2023-06-10T23:06:27.932Z,39.53
2023-06-10T23:08:54.483Z,39.78
2023-06-10T23:11:20.958Z,39.70
2023-06-10T23:13:47.540Z,39.45
2023-06-10T23:16:14.083Z,39.71
2023-06-10T23:18:41.257Z,39.81
2023-06-10T23:21:09.023Z,39.88
2023-06-10T23:23:38.035Z,39.94
2023-06-10T23:26:04.871Z,40.07
2023-06-10T23:28:31.461Z,40.25
2023-06-10T23:30:58.067Z,40.71
2023-06-10T23:33:25.223Z,40.80
2023-06-10T23:35:51.973Z,40.96
2023-06-10T23:38:18.473Z,41.21
2023-06-10T23:40:45.024Z,41.55
2023-06-10T23:43:14.711Z,41.44
2023-06-10T23:45:41.505Z,41.87
2023-06-10T23:48:08.288Z,42.03
2023-06-10T23:50:39.331Z,42.26
2023-06-10T23:53:08.976Z,42.93
2023-06-10T23:55:35.787Z,43.39
2023-06-10T23:58:03.422Z,43.17
